Ana Sayfa
METAR-TAF:

METAR-TAF

Havaalanları :

Nueva Loja, Ekvador

Enlem: 00-05-33N, Boylam: 076-52-10W, yükseklik: 299 m

Güncel hava durumu gözlemi

Rapor saat 23:00 UTC de 1 saat ve 9 dakika önce yapıldı.
Rüzgar güneydan 6 kt
Sıcaklık 24°C
Nem 89%
Basınç 1016 hPa
Görüş mesafesi 10 km veya daha fazla
2000 ft yükseklikte parçalı bulutlu
10000 ft yükseklikte çok bulutlu

METAR: SENL 212300Z 17006KT 9999 SCT020 OVC100 24/22 Q1016 RMK A3003

Saat: 19:09 (00:09 UTC)


TAF: eksik

4.000'den fazla havaalanı için hava durumu gözlemleri ve tahminleri (METAR ve TAF raporları).

Kullanılabilir istasyonlar harita üzerinde sarı ve kırmızı noktalarla gösterilir.

İstasyonun adını görmek için fareyi noktanın üzerinde gezdirin.

Sonrasında hava gözlem ve tahminlerini görmek için tıklayın.

Haritayı değiştirmek için: yaklaştırmak için siyah artı işaretli yeşil düğmeye ve uzaklaştırmak için de eksi işaretli düğmeye hızla tıklayın; bitişik haritalar için yeşil okları kullanın.


METAR-TAF: